createdAt,value
2023-02-13T00:01:30.986Z,90.87
2023-02-13T00:04:04.288Z,91.08
2023-02-13T00:06:36.719Z,91.35
2023-02-13T00:09:10.472Z,92.75
2023-02-13T00:11:42.989Z,93.36
2023-02-13T00:14:15.655Z,93.54
2023-02-13T00:16:48.990Z,93.09
2023-02-13T00:19:21.709Z,92.80
2023-02-13T00:21:54.145Z,93.34
2023-02-13T00:24:26.893Z,93.56
2023-02-13T00:26:59.313Z,93.83
2023-02-13T00:29:32.913Z,93.85
2023-02-13T00:32:06.311Z,93.99
2023-02-13T00:34:38.930Z,93.68
2023-02-13T00:37:11.522Z,93.16
2023-02-13T00:39:44.003Z,93.20
2023-02-13T00:42:16.543Z,92.83
2023-02-13T00:44:50.336Z,93.39
2023-02-13T00:47:23.551Z,94.27
2023-02-13T00:49:56.234Z,94.55
2023-02-13T00:52:28.644Z,95.62
2023-02-13T00:55:01.648Z,95.81
2023-02-13T00:57:34.218Z,96.12
2023-02-13T01:00:08.137Z,96.08
2023-02-13T01:02:41.283Z,96.58
2023-02-13T01:05:14.317Z,97.08
2023-02-13T01:07:46.703Z,97.01
2023-02-13T01:10:19.378Z,96.59
2023-02-13T01:12:52.031Z,97.09
2023-02-13T01:15:24.761Z,97.15
2023-02-13T01:18:00.189Z,97.22
2023-02-13T01:20:33.265Z,97.46
2023-02-13T01:23:05.758Z,97.87
2023-02-13T01:25:40.431Z,98.41
2023-02-13T01:28:12.967Z,98.84
2023-02-13T01:30:45.695Z,99.81
2023-02-13T01:33:18.838Z,99.84
2023-02-13T01:35:51.971Z,100.00
2023-02-13T01:38:24.505Z,100.00
2023-02-13T01:40:57.319Z,100.00
2023-02-13T01:43:45.145Z,100.00
2023-02-13T01:46:23.282Z,100.00
2023-02-13T01:49:03.101Z,100.00
2023-02-13T01:51:36.922Z,100.00
2023-02-13T01:54:13.937Z,100.00
2023-02-13T01:56:49.520Z,100.00
2023-02-13T01:59:26.269Z,100.00
2023-02-13T02:02:01.201Z,100.00
2023-02-13T02:04:37.849Z,100.00
2023-02-13T02:07:20.383Z,100.00
2023-02-13T02:10:01.933Z,100.00
2023-02-13T02:12:42.350Z,100.00
2023-02-13T02:15:16.524Z,100.00
2023-02-13T02:17:49.144Z,100.00
2023-02-13T02:20:39.238Z,100.00
2023-02-13T02:23:38.493Z,100.00
2023-02-13T02:26:45.849Z,100.00
2023-02-13T02:29:40.186Z,100.00
2023-02-13T02:32:24.549Z,100.00
2023-02-13T02:35:07.791Z,100.00
2023-02-13T02:38:01.411Z,100.00
2023-02-13T02:40:43.056Z,100.00
2023-02-13T02:43:28.541Z,100.00
2023-02-13T02:46:11.659Z,100.00
2023-02-13T02:49:08.980Z,100.00
2023-02-13T02:51:54.461Z,100.00
2023-02-13T02:54:50.791Z,100.00
2023-02-13T02:57:47.404Z,100.00
2023-02-13T03:00:42.367Z,100.00
2023-02-13T03:03:36.717Z,100.00
2023-02-13T03:06:15.125Z,100.00
2023-02-13T03:09:12.260Z,100.00
2023-02-13T03:12:08.666Z,100.00
2023-02-13T03:14:42.234Z,100.00
2023-02-13T03:17:35.691Z,100.00
2023-02-13T03:20:33.806Z,100.00
2023-02-13T03:23:13.953Z,100.00
2023-02-13T03:26:07.230Z,100.00
2023-02-13T03:29:08.029Z,100.00
2023-02-13T03:31:49.421Z,100.00
2023-02-13T03:34:25.256Z,100.00
2023-02-13T03:37:19.606Z,100.00
2023-02-13T03:40:01.078Z,100.00
2023-02-13T03:42:37.041Z,100.00
2023-02-13T03:45:32.434Z,100.00
2023-02-13T03:48:29.361Z,100.00
2023-02-13T03:51:03.486Z,100.00
2023-02-13T03:53:39.548Z,100.00
2023-02-13T03:56:32.759Z,100.00
2023-02-13T03:59:15.854Z,100.00
2023-02-13T04:01:59.391Z,100.00
2023-02-13T04:04:40.184Z,100.00
2023-02-13T04:07:28.612Z,100.00
2023-02-13T04:10:05.574Z,100.00
2023-02-13T04:12:48.657Z,100.00
2023-02-13T04:15:27.596Z,100.00
2023-02-13T04:18:09.629Z,100.00
2023-02-13T04:20:43.632Z,100.00
2023-02-13T04:23:16.326Z,100.00
2023-02-13T04:25:51.942Z,100.00
2023-02-13T04:28:25.187Z,100.00
2023-02-13T04:30:58.132Z,100.00
2023-02-13T04:33:30.697Z,100.00
2023-02-13T04:36:03.617Z,100.00
2023-02-13T04:38:36.106Z,100.00
2023-02-13T04:41:08.494Z,100.00
2023-02-13T04:43:41.656Z,100.00
2023-02-13T04:46:14.138Z,100.00
2023-02-13T04:48:46.811Z,100.00
2023-02-13T04:51:19.430Z,100.00
2023-02-13T04:53:51.792Z,100.00
2023-02-13T04:56:24.216Z,100.00
2023-02-13T04:58:57.213Z,100.00
2023-02-13T05:01:29.925Z,100.00
2023-02-13T05:04:02.460Z,100.00
2023-02-13T05:06:34.789Z,100.00
2023-02-13T05:09:07.199Z,100.00
2023-02-13T05:11:39.559Z,100.00
2023-02-13T05:14:12.892Z,100.00
2023-02-13T05:16:45.385Z,100.00
2023-02-13T05:19:17.828Z,99.09
2023-02-13T05:22:08.640Z,98.11
2023-02-13T05:24:41.374Z,98.00
2023-02-13T05:27:13.947Z,97.81
2023-02-13T05:29:47.031Z,96.21
2023-02-13T05:32:19.495Z,96.63
2023-02-13T05:34:51.915Z,96.52
2023-02-13T05:37:24.369Z,96.84
2023-02-13T05:39:56.727Z,97.20
2023-02-13T05:42:29.150Z,96.71
2023-02-13T05:45:02.784Z,96.65
2023-02-13T05:47:35.586Z,96.27
2023-02-13T05:50:08.625Z,96.10
2023-02-13T05:52:41.010Z,95.60
2023-02-13T05:55:13.530Z,94.88
2023-02-13T05:57:45.991Z,95.06
2023-02-13T06:00:20.774Z,94.42
2023-02-13T06:02:53.139Z,91.23
2023-02-13T06:05:25.827Z,91.43
2023-02-13T06:07:58.170Z,91.88
2023-02-13T06:10:31.122Z,92.40
2023-02-13T06:13:03.552Z,92.76
2023-02-13T06:15:36.876Z,94.83
2023-02-13T06:18:09.257Z,95.67
2023-02-13T06:20:41.891Z,96.42
2023-02-13T06:23:14.475Z,96.98
2023-02-13T06:25:47.074Z,97.94
2023-02-13T06:28:19.813Z,98.42
2023-02-13T06:30:53.005Z,98.93
2023-02-13T06:33:25.437Z,99.26
2023-02-13T06:35:57.849Z,99.67
2023-02-13T06:38:31.372Z,100.00
2023-02-13T06:41:04.014Z,100.00
2023-02-13T06:43:37.778Z,100.00
2023-02-13T06:46:12.441Z,99.87
2023-02-13T06:48:44.873Z,100.00
2023-02-13T06:51:17.308Z,100.00
2023-02-13T06:53:49.859Z,100.00
2023-02-13T06:56:22.306Z,100.00
2023-02-13T06:58:54.654Z,100.00
2023-02-13T07:01:27.869Z,100.00
2023-02-13T07:04:00.274Z,100.00
2023-02-13T07:06:33.582Z,100.00
2023-02-13T07:09:06.174Z,100.00
2023-02-13T07:11:39.110Z,100.00
2023-02-13T07:14:11.465Z,100.00
2023-02-13T07:16:44.580Z,100.00
2023-02-13T07:19:17.140Z,100.00
2023-02-13T07:21:49.929Z,100.00
2023-02-13T07:24:22.504Z,100.00
2023-02-13T07:26:55.130Z,100.00
2023-02-13T07:29:27.771Z,100.00
2023-02-13T07:32:01.650Z,100.00
2023-02-13T07:34:34.269Z,100.00
2023-02-13T07:37:06.761Z,100.00
2023-02-13T07:39:39.409Z,100.00
2023-02-13T07:42:11.986Z,100.00
2023-02-13T07:44:44.510Z,100.00
2023-02-13T07:47:19.780Z,100.00
2023-02-13T07:49:54.146Z,100.00
2023-02-13T07:52:26.594Z,100.00
2023-02-13T07:54:59.075Z,100.00
2023-02-13T07:57:31.622Z,100.00
2023-02-13T08:00:05.328Z,100.00
2023-02-13T08:02:45.077Z,100.00
2023-02-13T08:05:17.902Z,100.00
2023-02-13T08:07:50.269Z,100.00
2023-02-13T08:10:41.557Z,100.00
2023-02-13T08:13:15.560Z,100.00
2023-02-13T08:15:48.572Z,100.00
2023-02-13T08:18:21.731Z,100.00
2023-02-13T08:20:54.134Z,100.00
2023-02-13T08:23:26.597Z,100.00
2023-02-13T08:26:01.315Z,98.43
2023-02-13T08:28:35.318Z,98.40
2023-02-13T08:31:11.854Z,97.87
2023-02-13T08:33:45.104Z,97.98
2023-02-13T08:36:18.952Z,98.13
2023-02-13T08:38:51.328Z,97.69
2023-02-13T08:41:23.821Z,97.48
2023-02-13T08:43:56.208Z,96.46
2023-02-13T08:46:28.853Z,96.71
2023-02-13T08:49:01.904Z,96.43
2023-02-13T08:51:34.465Z,96.11
2023-02-13T08:54:06.836Z,94.27
2023-02-13T08:56:39.431Z,93.60
2023-02-13T08:59:11.885Z,93.14
2023-02-13T09:01:44.295Z,93.95
2023-02-13T09:04:17.930Z,93.44
2023-02-13T09:06:50.603Z,92.94
2023-02-13T09:09:23.187Z,92.12
2023-02-13T09:11:57.297Z,92.10
2023-02-13T09:14:29.847Z,92.29
2023-02-13T09:17:02.384Z,91.27
2023-02-13T09:19:35.710Z,91.44
2023-02-13T09:22:08.080Z,91.25
2023-02-13T09:24:40.720Z,90.10
2023-02-13T09:27:13.389Z,88.79
2023-02-13T09:29:46.405Z,87.56
2023-02-13T09:32:18.849Z,84.90
2023-02-13T09:34:51.932Z,84.33
2023-02-13T09:37:24.457Z,84.09
2023-02-13T09:39:56.848Z,85.14
2023-02-13T09:42:32.877Z,84.49
2023-02-13T09:45:07.897Z,84.63
2023-02-13T09:47:42.512Z,84.16
2023-02-13T09:50:21.693Z,83.55
2023-02-13T09:52:56.610Z,83.96
2023-02-13T09:55:46.636Z,82.53
2023-02-13T09:58:27.828Z,83.90
2023-02-13T10:01:04.312Z,82.11
2023-02-13T10:03:44.311Z,80.38
2023-02-13T10:06:24.891Z,79.71
2023-02-13T10:09:10.008Z,77.90
2023-02-13T10:12:05.764Z,77.45
2023-02-13T10:14:47.489Z,77.37
2023-02-13T10:17:26.526Z,78.17
2023-02-13T10:20:03.275Z,77.44
2023-02-13T10:22:41.156Z,76.47
2023-02-13T10:25:20.974Z,76.20
2023-02-13T10:27:57.990Z,75.09
2023-02-13T10:30:32.580Z,75.72
2023-02-13T10:33:21.043Z,73.95
2023-02-13T10:35:59.162Z,74.63
2023-02-13T10:38:35.470Z,74.46
2023-02-13T10:41:31.249Z,74.94
2023-02-13T10:44:19.316Z,75.85
2023-02-13T10:47:01.464Z,76.50
2023-02-13T10:49:47.481Z,75.65
2023-02-13T10:52:32.878Z,75.25
2023-02-13T10:55:28.882Z,75.90
2023-02-13T10:58:12.673Z,75.03
2023-02-13T11:00:49.856Z,74.80
2023-02-13T11:03:24.441Z,73.36
2023-02-13T11:05:59.253Z,74.25
2023-02-13T11:08:34.742Z,73.53
2023-02-13T11:11:29.283Z,73.08
2023-02-13T11:14:11.084Z,72.02
2023-02-13T11:16:53.335Z,72.48
2023-02-13T11:19:30.506Z,73.16
2023-02-13T11:22:06.591Z,72.54
2023-02-13T11:24:41.273Z,72.32
2023-02-13T11:27:14.451Z,70.91
2023-02-13T11:29:55.429Z,71.01
2023-02-13T11:32:30.029Z,71.40
2023-02-13T11:35:27.107Z,70.39
2023-02-13T11:38:20.194Z,71.19
2023-02-13T11:41:06.886Z,69.84
2023-02-13T11:43:47.814Z,68.92
2023-02-13T11:46:22.237Z,67.85
2023-02-13T11:49:01.442Z,68.25
2023-02-13T11:51:40.137Z,66.90
2023-02-13T11:54:30.484Z,66.83
2023-02-13T11:57:16.861Z,65.26
2023-02-13T11:59:52.186Z,64.25
2023-02-13T12:02:26.571Z,65.04
2023-02-13T12:05:17.611Z,66.23
2023-02-13T12:07:50.890Z,64.46
2023-02-13T12:10:26.801Z,63.30
2023-02-13T12:13:06.104Z,63.94
2023-02-13T12:15:40.166Z,64.01
2023-02-13T12:18:18.889Z,63.27
2023-02-13T12:20:59.362Z,62.53
2023-02-13T12:23:45.521Z,63.18
2023-02-13T12:26:30.061Z,61.78
2023-02-13T12:29:28.865Z,61.06
2023-02-13T12:32:15.218Z,60.76
2023-02-13T12:35:21.250Z,58.67
2023-02-13T12:38:01.341Z,57.37
2023-02-13T12:41:07.665Z,56.01
2023-02-13T12:44:21.533Z,54.65
2023-02-13T12:47:07.334Z,55.65
2023-02-13T12:49:59.801Z,55.86
2023-02-13T12:52:45.955Z,54.91
2023-02-13T12:55:47.542Z,54.63
2023-02-13T12:58:40.340Z,56.50
2023-02-13T13:01:22.396Z,56.36
2023-02-13T13:04:08.986Z,53.34
2023-02-13T13:06:56.298Z,53.25
2023-02-13T13:09:59.553Z,53.85
2023-02-13T13:12:45.633Z,54.12
2023-02-13T13:15:31.418Z,53.91
2023-02-13T13:18:18.038Z,51.99
2023-02-13T13:21:01.032Z,52.57
2023-02-13T13:23:37.178Z,51.76
2023-02-13T13:26:20.694Z,53.80
2023-02-13T13:28:55.607Z,53.53
2023-02-13T13:31:28.491Z,54.22
2023-02-13T13:34:11.760Z,53.52
2023-02-13T13:36:48.594Z,53.59
2023-02-13T13:39:36.971Z,54.23
2023-02-13T13:42:16.364Z,54.01
2023-02-13T13:45:08.435Z,53.63
2023-02-13T13:47:51.959Z,54.51
2023-02-13T13:50:26.241Z,55.40
2023-02-13T13:53:11.004Z,55.77
2023-02-13T13:56:07.885Z,56.61
2023-02-13T13:58:42.985Z,56.83
2023-02-13T14:01:17.607Z,58.33
2023-02-13T14:03:52.661Z,58.14
2023-02-13T14:06:27.481Z,57.78
2023-02-13T14:09:07.914Z,57.87
2023-02-13T14:11:45.833Z,58.38
2023-02-13T14:14:52.716Z,58.31
2023-02-13T14:17:53.868Z,58.14
2023-02-13T14:20:34.709Z,58.00
2023-02-13T14:23:33.480Z,59.34
2023-02-13T14:26:22.100Z,58.76
2023-02-13T14:29:05.113Z,59.98
2023-02-13T14:31:40.489Z,59.15
2023-02-13T14:34:28.307Z,59.24
2023-02-13T14:37:23.788Z,58.93
2023-02-13T14:40:41.213Z,58.97
2023-02-13T14:43:32.963Z,60.02
2023-02-13T14:46:24.426Z,59.69
2023-02-13T14:49:01.816Z,59.77
2023-02-13T14:51:38.065Z,59.55
2023-02-13T14:54:20.513Z,59.06
2023-02-13T14:56:59.161Z,60.89
2023-02-13T14:59:36.808Z,60.09
2023-02-13T15:02:18.545Z,59.92
2023-02-13T15:04:56.944Z,59.71
2023-02-13T15:07:34.090Z,60.73
2023-02-13T15:10:33.592Z,58.71
2023-02-13T15:13:13.456Z,59.67
2023-02-13T15:15:53.050Z,59.95
2023-02-13T15:18:28.025Z,60.17
2023-02-13T15:21:02.296Z,60.53
2023-02-13T15:23:34.766Z,60.54
2023-02-13T15:26:08.335Z,60.06
2023-02-13T15:28:40.884Z,60.55
2023-02-13T15:31:24.000Z,59.26
2023-02-13T15:33:58.108Z,60.16
2023-02-13T15:36:35.549Z,60.07
2023-02-13T15:39:17.992Z,59.65
2023-02-13T15:41:53.067Z,60.20
2023-02-13T15:44:28.734Z,61.34
2023-02-13T15:47:07.241Z,61.37
2023-02-13T15:49:44.968Z,61.74
2023-02-13T15:52:21.405Z,61.87
2023-02-13T15:54:55.585Z,61.46
2023-02-13T15:57:28.592Z,60.73
2023-02-13T16:00:02.646Z,61.78
2023-02-13T16:02:47.216Z,61.80
2023-02-13T16:05:37.472Z,62.19
2023-02-13T16:08:27.747Z,62.70
2023-02-13T16:11:17.633Z,62.55
2023-02-13T16:14:16.921Z,62.69
2023-02-13T16:16:52.601Z,63.50
2023-02-13T16:19:31.098Z,64.05
2023-02-13T16:22:20.078Z,64.87
2023-02-13T16:24:54.309Z,65.86
2023-02-13T16:27:28.027Z,65.69
2023-02-13T16:30:03.569Z,66.65
2023-02-13T16:32:38.140Z,66.99
2023-02-13T16:35:37.197Z,67.71
2023-02-13T16:38:29.779Z,67.74
2023-02-13T16:41:05.246Z,67.64
2023-02-13T16:43:44.508Z,68.91
2023-02-13T16:46:32.637Z,69.87
2023-02-13T16:49:23.615Z,70.89
2023-02-13T16:52:01.009Z,71.59
2023-02-13T16:54:46.014Z,71.44
2023-02-13T16:57:22.369Z,71.77
2023-02-13T17:00:03.614Z,72.29
2023-02-13T17:02:37.481Z,73.93
2023-02-13T17:05:20.073Z,72.71
2023-02-13T17:07:56.404Z,72.05
2023-02-13T17:10:32.880Z,72.84
2023-02-13T17:13:14.312Z,72.40
2023-02-13T17:15:48.020Z,73.28
2023-02-13T17:18:20.691Z,73.42
2023-02-13T17:20:53.849Z,72.35
2023-02-13T17:23:26.998Z,71.94
2023-02-13T17:25:59.423Z,71.69
2023-02-13T17:28:31.970Z,71.73
2023-02-13T17:31:09.824Z,72.40
2023-02-13T17:33:44.276Z,73.27
2023-02-13T17:36:16.643Z,73.70
2023-02-13T17:38:49.899Z,73.30
2023-02-13T17:41:22.539Z,73.47
2023-02-13T17:43:54.929Z,74.05
2023-02-13T17:46:27.383Z,75.08
2023-02-13T17:48:59.881Z,75.00
2023-02-13T17:51:32.627Z,75.64
2023-02-13T17:54:05.723Z,73.85
2023-02-13T17:56:38.118Z,73.88
2023-02-13T17:59:10.474Z,73.87
2023-02-13T18:01:42.891Z,74.47
2023-02-13T18:04:15.714Z,75.66
2023-02-13T18:06:51.698Z,75.77
2023-02-13T18:09:24.765Z,75.38
2023-02-13T18:12:05.428Z,74.79
2023-02-13T18:14:37.916Z,75.00
2023-02-13T18:17:10.760Z,75.30
2023-02-13T18:19:43.508Z,74.97
2023-02-13T18:22:16.107Z,75.36
2023-02-13T18:24:49.404Z,75.65
2023-02-13T18:27:22.526Z,74.54
2023-02-13T18:29:55.319Z,75.17
2023-02-13T18:32:28.096Z,75.69
2023-02-13T18:35:01.796Z,74.68
2023-02-13T18:37:34.408Z,74.83
2023-02-13T18:40:08.819Z,75.37
2023-02-13T18:42:41.434Z,75.15
2023-02-13T18:45:13.802Z,75.64
2023-02-13T18:47:46.210Z,75.45
2023-02-13T18:50:20.028Z,75.42
2023-02-13T18:52:52.412Z,75.70
2023-02-13T18:55:25.888Z,75.63
2023-02-13T18:57:58.740Z,76.11
2023-02-13T19:00:31.196Z,76.34
2023-02-13T19:03:03.626Z,75.98
2023-02-13T19:05:40.337Z,76.71
2023-02-13T19:08:14.071Z,76.44
2023-02-13T19:10:47.161Z,74.93
2023-02-13T19:13:19.687Z,76.60
2023-02-13T19:15:52.204Z,75.91
2023-02-13T19:18:24.698Z,75.81
2023-02-13T19:20:59.469Z,75.67
2023-02-13T19:23:32.115Z,75.88
2023-02-13T19:26:06.333Z,76.28
2023-02-13T19:28:39.022Z,76.13
2023-02-13T19:31:14.717Z,75.34
2023-02-13T19:33:48.655Z,75.57
2023-02-13T19:36:23.460Z,75.77
2023-02-13T19:38:57.739Z,75.21
2023-02-13T19:41:32.259Z,75.34
2023-02-13T19:44:04.892Z,75.10
2023-02-13T19:46:37.782Z,74.05
2023-02-13T19:49:10.251Z,74.10
2023-02-13T19:51:45.407Z,74.65
2023-02-13T19:54:17.760Z,74.02
2023-02-13T19:56:50.961Z,74.26
2023-02-13T19:59:23.278Z,73.88
2023-02-13T20:01:55.721Z,74.43
2023-02-13T20:04:28.113Z,74.37
2023-02-13T20:07:01.164Z,74.72
2023-02-13T20:09:34.781Z,74.17
2023-02-13T20:12:07.922Z,73.88
2023-02-13T20:14:40.326Z,74.21
2023-02-13T20:17:12.725Z,74.43
2023-02-13T20:19:46.892Z,74.16
2023-02-13T20:22:19.382Z,73.64
2023-02-13T20:24:54.627Z,74.08
2023-02-13T20:27:27.781Z,73.67
2023-02-13T20:30:06.589Z,73.31
2023-02-13T20:32:41.033Z,72.93
2023-02-13T20:35:13.299Z,72.21
2023-02-13T20:37:45.738Z,73.67
2023-02-13T20:40:18.257Z,74.33
2023-02-13T20:42:51.298Z,74.28
2023-02-13T20:45:23.912Z,74.93
2023-02-13T20:47:56.327Z,74.62
2023-02-13T20:50:28.896Z,74.91
2023-02-13T20:53:01.354Z,76.46
2023-02-13T20:55:33.744Z,75.63
2023-02-13T20:58:06.898Z,75.61
2023-02-13T21:00:39.324Z,74.88
2023-02-13T21:03:11.767Z,75.05
2023-02-13T21:05:44.848Z,74.96
2023-02-13T21:08:17.330Z,75.20
2023-02-13T21:10:49.737Z,75.58
2023-02-13T21:13:22.766Z,76.47
2023-02-13T21:16:02.465Z,76.69
2023-02-13T21:18:34.687Z,76.26
2023-02-13T21:21:09.163Z,76.87
2023-02-13T21:23:41.652Z,76.64
2023-02-13T21:26:16.716Z,77.12
2023-02-13T21:28:50.580Z,78.30
2023-02-13T21:31:27.158Z,78.80
2023-02-13T21:34:02.349Z,79.29
2023-02-13T21:36:36.475Z,78.85
2023-02-13T21:39:10.616Z,78.79
2023-02-13T21:41:44.706Z,79.01
2023-02-13T21:44:17.904Z,78.85
2023-02-13T21:46:50.552Z,78.10
2023-02-13T21:49:24.392Z,77.94
2023-02-13T21:51:56.897Z,77.97
2023-02-13T21:54:29.261Z,78.04
2023-02-13T21:57:02.003Z,78.88
2023-02-13T21:59:35.072Z,79.31
2023-02-13T22:02:07.576Z,79.44
2023-02-13T22:04:40.745Z,79.47
2023-02-13T22:07:13.086Z,79.84
2023-02-13T22:09:45.463Z,79.63
2023-02-13T22:12:17.824Z,80.19
2023-02-13T22:14:51.058Z,80.62
2023-02-13T22:17:23.601Z,81.79
2023-02-13T22:19:56.021Z,82.26
2023-02-13T22:22:28.319Z,81.45
2023-02-13T22:25:01.275Z,81.57
2023-02-13T22:27:34.149Z,80.97
2023-02-13T22:30:08.427Z,80.40
2023-02-13T22:32:41.499Z,79.88
2023-02-13T22:35:13.888Z,79.93
2023-02-13T22:37:46.281Z,80.31
2023-02-13T22:40:18.999Z,80.30
2023-02-13T22:42:51.941Z,80.67
2023-02-13T22:45:25.154Z,80.36
2023-02-13T22:47:57.892Z,80.29
2023-02-13T22:50:30.816Z,79.84
2023-02-13T22:53:03.372Z,79.52
2023-02-13T22:55:35.737Z,78.27
2023-02-13T22:58:08.054Z,78.62
2023-02-13T23:00:41.246Z,78.72
2023-02-13T23:03:14.510Z,79.58
2023-02-13T23:05:47.079Z,80.51
2023-02-13T23:08:19.592Z,80.94
2023-02-13T23:11:06.704Z,80.43
2023-02-13T23:13:39.073Z,80.20
2023-02-13T23:16:13.432Z,80.19
2023-02-13T23:18:50.849Z,79.78
2023-02-13T23:21:23.734Z,79.11
2023-02-13T23:23:56.102Z,78.95
2023-02-13T23:26:28.529Z,78.14
2023-02-13T23:29:00.893Z,77.49
2023-02-13T23:31:33.990Z,78.38
2023-02-13T23:34:06.503Z,78.40
2023-02-13T23:36:38.964Z,77.48
2023-02-13T23:39:11.372Z,78.49
2023-02-13T23:41:43.791Z,79.09
2023-02-13T23:44:16.211Z,78.74
2023-02-13T23:46:49.376Z,78.14
2023-02-13T23:49:22.058Z,78.34
2023-02-13T23:51:54.597Z,78.58
2023-02-13T23:54:27.079Z,78.41
2023-02-13T23:56:59.800Z,78.83
2023-02-13T23:59:32.847Z,79.61
